createdAt,value
2023-01-20T00:00:46.792Z,7.85
2023-01-20T00:03:16.697Z,6.97
2023-01-20T00:05:53.300Z,7.07
2023-01-20T00:08:23.121Z,6.75
2023-01-20T00:10:52.873Z,6.60
2023-01-20T00:13:22.533Z,7.18
2023-01-20T00:15:54.003Z,7.57
2023-01-20T00:18:23.807Z,7.95
2023-01-20T00:20:53.462Z,7.68
2023-01-20T00:23:23.220Z,8.45
2023-01-20T00:25:52.914Z,8.55
2023-01-20T00:28:22.613Z,8.18
2023-01-20T00:30:54.012Z,8.57
2023-01-20T00:33:23.767Z,7.38
2023-01-20T00:35:53.557Z,7.53
2023-01-20T00:38:23.493Z,7.88
2023-01-20T00:40:56.079Z,8.25
2023-01-20T00:43:26.130Z,8.10
2023-01-20T00:45:57.391Z,8.23
2023-01-20T00:48:27.295Z,8.65
2023-01-20T00:51:02.489Z,7.15
2023-01-20T00:53:32.817Z,7.90
2023-01-20T00:56:02.706Z,7.78
2023-01-20T00:58:32.684Z,7.55
2023-01-20T01:01:04.321Z,7.05
2023-01-20T01:03:34.312Z,7.60
2023-01-20T01:06:13.398Z,8.60
2023-01-20T01:08:44.186Z,8.57
2023-01-20T01:11:14.637Z,8.80
2023-01-20T01:13:44.473Z,8.18
2023-01-20T01:16:17.729Z,8.57
2023-01-20T01:18:47.775Z,7.55
2023-01-20T01:21:19.072Z,8.02
2023-01-20T01:23:49.067Z,8.00
2023-01-20T01:26:19.039Z,6.97
2023-01-20T01:28:49.811Z,7.70
2023-01-20T01:31:22.072Z,8.55
2023-01-20T01:33:52.023Z,6.70
2023-01-20T01:36:21.960Z,7.72
2023-01-20T01:38:58.389Z,8.80
2023-01-20T01:41:29.538Z,6.93
2023-01-20T01:44:08.028Z,6.72
2023-01-20T01:46:40.464Z,7.60
2023-01-20T01:49:16.749Z,7.60
2023-01-20T01:51:53.809Z,6.78
2023-01-20T01:54:28.141Z,6.90
2023-01-20T01:56:58.312Z,6.22
2023-01-20T01:59:28.850Z,5.32
2023-01-20T02:02:00.458Z,6.80
2023-01-20T02:04:33.902Z,7.00
2023-01-20T02:07:10.550Z,6.00
2023-01-20T02:09:40.620Z,6.13
2023-01-20T02:12:18.243Z,6.75
2023-01-20T02:14:52.359Z,6.38
2023-01-20T02:17:31.976Z,5.97
2023-01-20T02:20:52.241Z,5.95
2023-01-20T02:23:49.492Z,5.97
2023-01-20T02:26:52.884Z,5.40
2023-01-20T02:30:37.720Z,6.10
2023-01-20T02:33:15.014Z,5.65
2023-01-20T02:35:51.487Z,5.18
2023-01-20T02:38:33.018Z,5.80
2023-01-20T02:41:15.146Z,5.40
2023-01-20T02:43:52.320Z,5.43
2023-01-20T02:46:32.187Z,5.47
2023-01-20T02:49:15.290Z,5.03
2023-01-20T02:51:54.030Z,5.47
2023-01-20T02:54:28.703Z,5.03
2023-01-20T02:57:01.783Z,5.18
2023-01-20T02:59:38.627Z,4.93
2023-01-20T03:02:14.664Z,5.32
2023-01-20T03:04:54.491Z,5.95
2023-01-20T03:07:29.831Z,5.95
2023-01-20T03:10:06.371Z,5.15
2023-01-20T03:12:43.813Z,5.65
2023-01-20T03:15:14.755Z,4.78
2023-01-20T03:17:44.679Z,5.80
2023-01-20T03:20:16.663Z,4.68
2023-01-20T03:22:46.534Z,5.47
2023-01-20T03:25:17.402Z,6.43
2023-01-20T03:27:47.640Z,6.63
2023-01-20T03:30:19.965Z,6.07
2023-01-20T03:32:53.107Z,6.28
2023-01-20T03:35:25.285Z,6.03
2023-01-20T03:37:55.236Z,7.05
2023-01-20T03:40:31.172Z,6.35
2023-01-20T03:43:10.419Z,5.72
2023-01-20T03:45:51.392Z,5.20
2023-01-20T03:48:30.301Z,6.30
2023-01-20T03:51:11.689Z,6.07
2023-01-20T03:53:48.267Z,6.72
2023-01-20T03:56:25.094Z,6.28
2023-01-20T03:58:57.517Z,6.03
2023-01-20T04:01:35.473Z,6.13
2023-01-20T04:04:10.140Z,5.95
2023-01-20T04:06:43.854Z,6.82
2023-01-20T04:09:24.085Z,6.97
2023-01-20T04:11:54.427Z,7.03
2023-01-20T04:14:24.381Z,6.55
2023-01-20T04:16:57.828Z,6.13
2023-01-20T04:22:07.795Z,6.60
2023-01-20T04:24:44.359Z,6.20
2023-01-20T04:27:14.206Z,6.75
2023-01-20T04:29:45.156Z,6.70
2023-01-20T04:32:15.192Z,6.10
2023-01-20T04:34:45.102Z,7.15
2023-01-20T04:37:16.551Z,6.32
2023-01-20T04:39:46.701Z,7.68
2023-01-20T04:42:16.679Z,7.28
2023-01-20T04:44:47.784Z,8.27
2023-01-20T04:47:19.614Z,7.03
2023-01-20T04:49:49.508Z,6.65
2023-01-20T04:52:20.710Z,7.47
2023-01-20T04:54:51.074Z,7.97
2023-01-20T04:57:20.870Z,7.85
2023-01-20T04:59:51.239Z,8.07
2023-01-20T05:02:21.133Z,8.30
2023-01-20T05:04:51.390Z,8.40
2023-01-20T05:07:22.754Z,9.02
2023-01-20T05:09:52.924Z,8.35
2023-01-20T05:12:23.334Z,10.07
2023-01-20T05:14:54.735Z,9.50
2023-01-20T05:17:25.899Z,9.27
2023-01-20T05:19:56.382Z,9.57
2023-01-20T05:22:28.410Z,10.90
2023-01-20T05:24:58.163Z,10.23
2023-01-20T05:27:28.634Z,10.45
2023-01-20T05:29:58.748Z,11.82
2023-01-20T05:32:34.754Z,11.82
2023-01-20T05:35:07.004Z,11.93
2023-01-20T05:37:38.762Z,13.20
2023-01-20T05:40:15.104Z,13.02
2023-01-20T05:42:45.977Z,11.90
2023-01-20T05:45:16.586Z,13.55
2023-01-20T05:47:57.941Z,11.95
2023-01-20T05:50:47.510Z,12.80
2023-01-20T05:53:43.407Z,12.25
2023-01-20T05:56:36.309Z,11.90
2023-01-20T05:59:25.227Z,11.60
2023-01-20T06:02:52.340Z,11.57
2023-01-20T06:05:41.521Z,10.93
2023-01-20T06:08:41.173Z,12.13
2023-01-20T06:11:28.531Z,11.20
2023-01-20T06:14:14.451Z,11.43
2023-01-20T06:17:02.985Z,11.60
2023-01-20T06:19:44.124Z,13.52
2023-01-20T06:22:16.524Z,12.95
2023-01-20T06:24:48.811Z,13.48
2023-01-20T06:27:19.390Z,12.63
2023-01-20T06:29:50.839Z,13.00
2023-01-20T06:32:20.662Z,12.38
2023-01-20T06:34:53.005Z,13.18
2023-01-20T06:37:22.810Z,12.63
2023-01-20T06:39:54.662Z,11.80
2023-01-20T06:42:24.496Z,13.38
2023-01-20T06:44:54.185Z,12.07
2023-01-20T06:47:24.011Z,13.32
2023-01-20T06:49:53.902Z,12.35
2023-01-20T06:52:24.903Z,13.43
2023-01-20T06:54:56.404Z,16.13
2023-01-20T06:57:27.339Z,14.82
2023-01-20T06:59:59.315Z,13.63
2023-01-20T07:02:29.425Z,12.50
2023-01-20T07:05:00.143Z,12.77
2023-01-20T07:07:30.576Z,12.40
2023-01-20T07:10:04.957Z,11.80
2023-01-20T07:12:37.967Z,12.05
2023-01-20T07:15:10.318Z,11.32
2023-01-20T07:17:40.318Z,12.50
2023-01-20T07:20:14.103Z,12.38
2023-01-20T07:22:43.996Z,11.82
2023-01-20T07:25:15.768Z,12.32
2023-01-20T07:27:45.799Z,13.60
2023-01-20T07:30:16.786Z,11.70
2023-01-20T07:32:46.690Z,11.90
2023-01-20T07:35:17.046Z,12.38
2023-01-20T07:37:46.959Z,13.15
2023-01-20T07:40:19.920Z,13.05
2023-01-20T07:42:49.895Z,13.10
2023-01-20T07:45:20.026Z,12.48
2023-01-20T07:47:50.175Z,12.02
2023-01-20T07:50:22.093Z,11.55
2023-01-20T07:52:52.766Z,12.32
2023-01-20T07:55:25.382Z,12.00
2023-01-20T07:57:56.240Z,13.52
2023-01-20T08:00:28.108Z,12.23
2023-01-20T08:02:58.096Z,12.98
2023-01-20T08:05:27.900Z,14.60
2023-01-20T08:07:57.590Z,12.65
2023-01-20T08:10:29.335Z,13.65
2023-01-20T08:13:00.103Z,13.02
2023-01-20T08:15:30.086Z,13.95
2023-01-20T08:18:00.441Z,12.82
2023-01-20T08:20:30.219Z,13.80
2023-01-20T08:23:00.124Z,13.05
2023-01-20T08:25:31.664Z,12.60
2023-01-20T08:28:03.310Z,13.38
2023-01-20T08:30:34.577Z,14.85
2023-01-20T08:33:04.600Z,13.00
2023-01-20T08:35:37.003Z,11.75
2023-01-20T08:38:07.655Z,12.00
2023-01-20T08:40:41.931Z,11.70
2023-01-20T08:43:11.561Z,10.25
2023-01-20T08:45:43.716Z,10.68
2023-01-20T08:48:13.627Z,10.95
2023-01-20T08:50:43.457Z,10.20
2023-01-20T08:53:13.379Z,10.57
2023-01-20T08:55:44.770Z,10.90
2023-01-20T08:58:14.711Z,11.15
2023-01-20T09:00:46.797Z,10.68
2023-01-20T09:03:17.912Z,10.65
2023-01-20T09:05:48.756Z,10.25
2023-01-20T09:08:20.475Z,10.88
2023-01-20T09:10:51.660Z,9.95
2023-01-20T09:13:21.563Z,9.82
2023-01-20T09:15:53.841Z,8.63
2023-01-20T09:18:25.747Z,8.45
2023-01-20T09:20:59.467Z,9.13
2023-01-20T09:23:30.238Z,9.23
2023-01-20T09:26:04.195Z,7.07
2023-01-20T09:28:35.077Z,7.43
2023-01-20T09:31:10.021Z,8.32
2023-01-20T09:33:44.197Z,7.68
2023-01-20T09:36:16.700Z,7.45
2023-01-20T09:39:05.174Z,7.88
2023-01-20T09:41:57.523Z,6.95
2023-01-20T09:44:49.932Z,7.45
2023-01-20T09:47:41.478Z,7.45
2023-01-20T09:51:05.253Z,8.43
2023-01-20T09:53:59.879Z,9.10
2023-01-20T09:56:32.581Z,7.82
2023-01-20T09:59:12.278Z,5.93
2023-01-20T10:01:47.704Z,7.50
2023-01-20T10:04:25.291Z,7.40
2023-01-20T10:07:06.721Z,6.50
2023-01-20T10:09:43.910Z,7.90
2023-01-20T10:12:21.332Z,7.63
2023-01-20T10:15:03.453Z,6.53
2023-01-20T10:17:40.508Z,6.63
2023-01-20T10:20:21.254Z,7.10
2023-01-20T10:22:57.963Z,8.02
2023-01-20T10:25:37.938Z,7.53
2023-01-20T10:28:39.038Z,8.52
2023-01-20T10:31:12.745Z,8.48
2023-01-20T10:33:47.497Z,8.10
2023-01-20T10:36:25.881Z,7.57
2023-01-20T10:39:02.499Z,8.45
2023-01-20T10:41:43.734Z,9.02
2023-01-20T10:44:17.205Z,8.32
2023-01-20T10:47:09.219Z,7.90
2023-01-20T10:50:43.797Z,7.40
2023-01-20T10:53:47.105Z,7.53
2023-01-20T10:56:40.589Z,5.30
2023-01-20T10:59:17.421Z,9.02
2023-01-20T11:02:02.536Z,9.20
2023-01-20T11:04:40.365Z,8.88
2023-01-20T11:07:18.324Z,9.13
2023-01-20T11:09:50.070Z,9.77
2023-01-20T11:12:27.836Z,9.43
2023-01-20T11:15:01.669Z,9.85
2023-01-20T11:17:33.852Z,9.52
2023-01-20T11:20:16.544Z,8.55
2023-01-20T11:22:50.485Z,9.77
2023-01-20T11:25:28.372Z,10.55
2023-01-20T11:27:58.181Z,10.02
2023-01-20T11:30:32.778Z,10.98
2023-01-20T11:33:21.639Z,12.32
2023-01-20T11:36:03.749Z,10.88
2023-01-20T11:38:43.260Z,11.07
2023-01-20T11:41:22.383Z,12.75
2023-01-20T11:43:56.243Z,13.50
2023-01-20T11:46:31.846Z,13.57
2023-01-20T11:49:18.416Z,14.70
2023-01-20T11:51:53.167Z,13.40
2023-01-20T11:54:25.994Z,13.57
2023-01-20T11:57:01.738Z,14.88
2023-01-20T11:59:35.037Z,14.48
2023-01-20T12:02:24.977Z,14.80
2023-01-20T12:05:10.659Z,14.77
2023-01-20T12:07:47.267Z,14.85
2023-01-20T12:10:23.476Z,14.52
2023-01-20T12:12:58.804Z,16.05
2023-01-20T12:15:33.060Z,16.98
2023-01-20T12:18:12.339Z,15.75
2023-01-20T12:20:56.764Z,13.63
2023-01-20T12:23:45.676Z,14.70
2023-01-20T12:26:17.405Z,14.35
2023-01-20T12:28:57.040Z,17.50
2023-01-20T12:31:26.785Z,14.38
2023-01-20T12:34:03.822Z,16.08
2023-01-20T12:37:05.663Z,15.00
2023-01-20T12:40:08.053Z,15.70
2023-01-20T12:43:37.001Z,15.48
2023-01-20T12:46:35.202Z,14.10
2023-01-20T12:49:44.770Z,15.38
2023-01-20T12:52:44.442Z,15.07
2023-01-20T12:55:32.680Z,15.88
2023-01-20T12:58:16.976Z,16.17
2023-01-20T13:01:11.203Z,15.40
2023-01-20T13:04:16.826Z,16.65
2023-01-20T13:07:30.907Z,15.05
2023-01-20T13:10:25.505Z,14.38
2023-01-20T13:13:04.788Z,13.95
2023-01-20T13:15:42.452Z,16.73
2023-01-20T13:18:28.816Z,14.68
2023-01-20T13:20:58.422Z,14.23
2023-01-20T13:23:33.326Z,15.07
2023-01-20T13:26:05.501Z,14.88
2023-01-20T13:28:35.413Z,16.48
2023-01-20T13:31:47.047Z,14.60
2023-01-20T13:34:36.931Z,15.13
2023-01-20T13:37:35.748Z,15.95
2023-01-20T13:40:49.443Z,15.82
2023-01-20T13:43:52.345Z,16.48
2023-01-20T13:46:49.240Z,15.15
2023-01-20T13:49:47.951Z,15.68
2023-01-20T13:53:04.676Z,15.98
2023-01-20T13:56:02.625Z,15.68
2023-01-20T13:58:34.521Z,15.10
2023-01-20T14:01:07.698Z,15.48
2023-01-20T14:03:40.619Z,15.60
2023-01-20T14:06:23.957Z,15.02
2023-01-20T14:08:53.489Z,13.68
2023-01-20T14:11:26.975Z,17.52
2023-01-20T14:13:59.748Z,16.20
2023-01-20T14:16:32.131Z,15.85
2023-01-20T14:19:14.119Z,14.77
2023-01-20T14:21:44.362Z,15.05
2023-01-20T14:24:29.506Z,14.98
2023-01-20T14:27:16.466Z,15.45
2023-01-20T14:29:46.884Z,17.20
2023-01-20T14:32:22.348Z,14.65
2023-01-20T14:34:53.591Z,15.32
2023-01-20T14:37:29.791Z,15.85
2023-01-20T14:40:03.289Z,15.57
2023-01-20T14:42:34.286Z,15.55
2023-01-20T14:45:03.912Z,16.88
2023-01-20T14:47:38.746Z,16.52
2023-01-20T14:50:15.168Z,14.82
2023-01-20T14:52:46.037Z,16.13
2023-01-20T14:55:31.621Z,16.92
2023-01-20T14:58:08.976Z,15.40
2023-01-20T15:00:45.315Z,15.68
2023-01-20T15:03:20.769Z,17.08
2023-01-20T15:05:59.185Z,16.15
2023-01-20T15:08:56.854Z,16.10
2023-01-20T15:11:34.440Z,14.95
2023-01-20T15:14:11.972Z,17.00
2023-01-20T15:16:51.954Z,16.77
2023-01-20T15:19:35.847Z,16.77
2023-01-20T15:22:24.402Z,16.42
2023-01-20T15:24:54.869Z,15.95
2023-01-20T15:27:33.305Z,17.75
2023-01-20T15:30:21.079Z,18.50
2023-01-20T15:32:53.010Z,19.38
2023-01-20T15:35:26.829Z,16.98
2023-01-20T15:37:56.437Z,16.70
2023-01-20T15:40:26.857Z,16.98
2023-01-20T15:42:57.524Z,17.15
2023-01-20T15:45:28.529Z,18.13
2023-01-20T15:47:58.434Z,18.67
2023-01-20T15:50:31.171Z,17.65
2023-01-20T15:53:00.933Z,18.58
2023-01-20T15:55:30.497Z,17.35
2023-01-20T15:57:59.950Z,18.67
2023-01-20T16:00:32.523Z,17.60
2023-01-20T16:03:02.145Z,19.08
2023-01-20T16:05:31.683Z,17.05
2023-01-20T16:08:01.184Z,16.40
2023-01-20T16:10:30.658Z,17.80
2023-01-20T16:13:00.105Z,16.65
2023-01-20T16:15:30.923Z,17.17
2023-01-20T16:18:00.418Z,18.30
2023-01-20T16:20:29.952Z,16.92
2023-01-20T16:22:59.474Z,15.43
2023-01-20T16:25:30.141Z,14.07
2023-01-20T16:28:00.143Z,15.63
2023-01-20T16:30:31.069Z,13.60
2023-01-20T16:33:00.543Z,12.50
2023-01-20T16:35:30.179Z,11.38
2023-01-20T16:38:01.143Z,11.35
2023-01-20T16:40:32.111Z,13.33
2023-01-20T16:43:01.633Z,12.43
2023-01-20T16:45:34.519Z,14.13
2023-01-20T16:48:04.176Z,13.30
2023-01-20T16:50:33.718Z,12.70
2023-01-20T16:53:03.332Z,11.10
2023-01-20T16:55:32.835Z,11.45
2023-01-20T16:58:02.284Z,10.60
2023-01-20T17:00:33.296Z,10.85
2023-01-20T17:03:03.227Z,11.00
2023-01-20T17:05:32.768Z,10.25
2023-01-20T17:08:02.542Z,10.13
2023-01-20T17:10:33.662Z,10.57
2023-01-20T17:13:03.255Z,10.45
2023-01-20T17:15:34.155Z,10.70
2023-01-20T17:18:03.600Z,9.82
2023-01-20T17:20:33.102Z,9.85
2023-01-20T17:24:14.170Z,9.40
2023-01-20T17:26:43.875Z,9.35
2023-01-20T17:29:13.448Z,10.15
2023-01-20T17:31:44.707Z,9.38
2023-01-20T17:34:14.414Z,10.00
2023-01-20T17:36:44.025Z,9.63
2023-01-20T17:39:13.899Z,10.10
2023-01-20T17:41:43.508Z,9.70
2023-01-20T17:44:14.180Z,10.80
2023-01-20T17:46:45.156Z,8.50
2023-01-20T17:49:14.619Z,9.13
2023-01-20T17:51:44.264Z,8.50
2023-01-20T17:54:13.650Z,9.07
2023-01-20T17:56:43.041Z,10.18
2023-01-20T17:59:12.533Z,9.25
2023-01-20T18:01:42.068Z,10.05
2023-01-20T18:04:12.879Z,11.73
2023-01-20T18:06:42.304Z,10.38
2023-01-20T18:09:15.671Z,11.77
2023-01-20T18:14:14.528Z,11.75
2023-01-20T18:16:44.201Z,13.23
2023-01-20T18:19:15.716Z,15.05
2023-01-20T18:21:45.175Z,16.15
2023-01-20T18:24:14.665Z,12.95
2023-01-20T18:26:44.512Z,13.43
2023-01-20T18:29:17.646Z,12.73
2023-01-20T18:31:47.340Z,12.00
2023-01-20T18:34:18.263Z,10.85
2023-01-20T18:36:49.180Z,10.90
2023-01-20T18:39:22.440Z,12.13
2023-01-20T18:41:53.074Z,11.93
2023-01-20T18:44:23.299Z,12.68
2023-01-20T18:46:53.867Z,12.15
2023-01-20T18:49:25.069Z,11.50
2023-01-20T18:51:54.506Z,11.20
2023-01-20T18:54:25.725Z,11.57
2023-01-20T18:56:55.216Z,11.75
2023-01-20T19:04:13.309Z,11.05
2023-01-20T19:06:46.330Z,7.65
2023-01-20T19:09:17.344Z,8.65
2023-01-20T19:11:47.001Z,10.00
2023-01-20T19:14:16.880Z,9.95
2023-01-20T19:16:49.128Z,8.40
2023-01-20T19:19:19.353Z,8.73
2023-01-20T19:21:53.075Z,9.88
2023-01-20T19:24:22.886Z,8.50
2023-01-20T19:26:52.258Z,11.20
2023-01-20T19:29:22.006Z,8.45
2023-01-20T19:31:57.220Z,10.27
2023-01-20T19:34:27.297Z,10.63
2023-01-20T19:36:59.780Z,11.93
2023-01-20T19:39:29.552Z,13.07
2023-01-20T19:41:59.417Z,12.05
2023-01-20T19:44:29.080Z,13.52
2023-01-20T19:47:04.014Z,12.05
2023-01-20T19:49:33.356Z,13.70
2023-01-20T19:52:04.179Z,13.88
2023-01-20T19:54:33.602Z,15.00
2023-01-20T19:57:03.059Z,13.02
2023-01-20T19:59:32.812Z,13.15
2023-01-20T20:02:02.302Z,14.25
2023-01-20T20:04:31.789Z,14.98
2023-01-20T20:07:01.280Z,13.15
2023-01-20T20:09:32.139Z,14.65
2023-01-20T20:12:06.008Z,14.00
2023-01-20T20:14:35.731Z,13.40
2023-01-20T20:17:05.260Z,13.10
2023-01-20T20:19:35.050Z,14.77
2023-01-20T20:22:04.584Z,14.70
2023-01-20T20:24:35.435Z,13.23
2023-01-20T20:27:05.090Z,14.48
2023-01-20T20:29:34.554Z,13.00
2023-01-20T20:32:04.058Z,13.73
2023-01-20T20:34:34.107Z,14.25
2023-01-20T20:37:03.982Z,13.80
2023-01-20T20:39:35.185Z,13.73
2023-01-20T20:42:04.724Z,12.95
2023-01-20T20:44:34.115Z,13.73
2023-01-20T20:47:03.778Z,14.35
2023-01-20T20:49:33.206Z,15.25
2023-01-20T20:52:02.628Z,14.93
2023-01-20T20:54:32.115Z,14.82
2023-01-20T20:57:03.088Z,15.85
2023-01-20T20:59:32.475Z,14.05
2023-01-20T21:02:02.020Z,13.07
2023-01-20T21:04:31.996Z,13.50
2023-01-20T21:07:01.552Z,15.27
2023-01-20T21:09:31.173Z,14.65
2023-01-20T21:12:01.962Z,14.35
2023-01-20T21:14:31.363Z,15.98
2023-01-20T21:17:00.895Z,17.00
2023-01-20T21:19:30.436Z,15.15
2023-01-20T21:21:59.938Z,16.10
2023-01-20T21:24:30.010Z,16.02
2023-01-20T21:27:03.363Z,18.07
2023-01-20T21:29:32.780Z,16.45
2023-01-20T21:32:02.249Z,17.48
2023-01-20T21:34:31.875Z,15.57
2023-01-20T21:37:01.288Z,15.68
2023-01-20T21:39:30.979Z,14.57
2023-01-20T21:42:02.054Z,15.95
2023-01-20T21:44:32.426Z,15.63
2023-01-20T21:47:05.902Z,16.90
2023-01-20T21:49:53.472Z,15.85
2023-01-20T21:52:44.198Z,15.82
2023-01-20T21:55:19.093Z,16.40
2023-01-20T21:57:51.541Z,15.35
2023-01-20T22:00:22.400Z,17.13
2023-01-20T22:02:52.112Z,17.98
2023-01-20T22:05:21.555Z,16.17
2023-01-20T22:07:51.021Z,18.25
2023-01-20T22:10:20.453Z,15.73
2023-01-20T22:12:51.267Z,17.35
2023-01-20T22:15:21.206Z,15.77
2023-01-20T22:17:50.658Z,17.55
2023-01-20T22:20:20.429Z,18.23
2023-01-20T22:22:49.858Z,16.73
2023-01-20T22:25:19.214Z,18.23
2023-01-20T22:27:50.897Z,17.85
2023-01-20T22:30:23.089Z,18.02
2023-01-20T22:32:52.564Z,17.35
2023-01-20T22:35:21.980Z,17.63
2023-01-20T22:37:51.396Z,16.65
2023-01-20T22:40:21.026Z,17.00
2023-01-20T22:42:51.829Z,18.00
2023-01-20T22:45:21.300Z,17.25
2023-01-20T22:47:50.720Z,18.23
2023-01-20T22:50:20.277Z,17.17
2023-01-20T22:52:49.712Z,17.63
2023-01-20T22:55:19.125Z,17.15
2023-01-20T22:57:48.544Z,16.83
2023-01-20T23:00:22.771Z,18.63
2023-01-20T23:02:53.397Z,16.98
2023-01-20T23:05:22.898Z,17.40
2023-01-20T23:07:52.315Z,17.40
2023-01-20T23:10:35.702Z,17.10
2023-01-20T23:13:05.429Z,18.50
2023-01-20T23:15:36.350Z,15.98
2023-01-20T23:18:06.060Z,17.70
2023-01-20T23:20:35.530Z,16.08
2023-01-20T23:23:05.686Z,15.90
2023-01-20T23:25:35.491Z,17.60
2023-01-20T23:28:05.113Z,15.27
2023-01-20T23:30:35.944Z,16.75
2023-01-20T23:33:06.185Z,16.05
2023-01-20T23:35:38.806Z,16.33
2023-01-20T23:38:08.996Z,16.20
2023-01-20T23:40:38.421Z,16.17
2023-01-20T23:43:07.794Z,18.15
2023-01-20T23:45:38.561Z,16.35
2023-01-20T23:48:08.276Z,15.82
2023-01-20T23:50:37.724Z,16.15
2023-01-20T23:53:07.213Z,15.93
2023-01-20T23:55:38.741Z,17.60
2023-01-20T23:58:08.265Z,18.48
